Time;durP1;ratioP1;P1;durP2;ratioP2;P2;SDS_P1;SDS_P2;PMS_P1;PMS_P2;Temp;Humidity;BMP_temperature;BMP_pressure;BME280_temperature;BME280_humidity;BME280_pressure;Samples;Min_cycle;Max_cycle;Signal;HPM_P1;HPM_P2
2023/06/03 04:24:23;;;;;;;7.68;4.25;;;;;;;9.81;78.94;96588.25;2090304;28;20537;-56
2023/06/03 08:01:17;;;;;;;19.67;4.88;;;;;;;18.67;56.13;96592.44;2083907;28;21039;-57
2023/06/03 08:03:27;;;;;;;17.85;4.97;;;;;;;19.74;53.75;96594.53;2113903;27;20756;-57
2023/06/03 08:05:36;;;;;;;13.82;4.95;;;;;;;19.84;51.99;96607.88;2086731;27;20563;-57
2023/06/03 08:07:43;;;;;;;13.48;4.65;;;;;;;18.26;56.21;96612.34;2100679;27;20563;-57
2023/06/03 08:09:55;;;;;;;21.65;6.00;;;;;;;17.49;57.50;96581.91;2083798;28;20558;-58
2023/06/03 08:12:11;;;;;;;17.58;5.72;;;;;;;18.14;56.07;96605.34;2085195;28;20569;-57
2023/06/03 08:14:36;;;;;;;10.40;4.45;;;;;;;19.06;55.18;96606.16;2091056;27;20575;-57
2023/06/03 08:17:09;;;;;;;12.30;4.45;;;;;;;20.38;53.23;96609.53;2108297;27;20576;-56
2023/06/03 08:18:15;;;;;;;16.33;5.32;;;;;;;20.67;52.28;96610.63;2107713;28;20194;-57
2023/06/03 08:20:27;;;;;;;10.82;4.43;;;;;;;20.81;52.05;96605.03;2058926;27;1221968;-57
2023/06/03 08:21:29;;;;;;;19.02;5.10;;;;;;;21.04;50.49;96610.97;2094855;28;20195;-57
2023/06/03 08:22:42;;;;;;;14.55;4.70;;;;;;;19.87;52.39;96613.78;2094476;28;20854;-57
2023/06/03 08:25:11;;;;;;;18.45;4.95;;;;;;;18.85;54.33;96613.94;2086203;27;20577;-57
2023/06/03 08:26:12;;;;;;;17.75;6.28;;;;;;;19.13;53.45;96608.31;2083725;28;20211;-57
2023/06/03 08:27:14;;;;;;;15.40;5.45;;;;;;;18.95;54.11;96615.91;2082960;28;20197;-58
2023/06/03 08:28:18;;;;;;;13.80;5.07;;;;;;;19.64;53.50;96602.41;2083916;28;20270;-58
2023/06/03 08:29:20;;;;;;;13.65;5.32;;;;;;;19.72;53.16;96615.03;2074883;28;20208;-58
2023/06/03 08:30:22;;;;;;;15.80;4.47;;;;;;;19.40;54.06;96624.63;2063687;28;20218;-58
2023/06/03 08:31:24;;;;;;;31.15;5.80;;;;;;;20.07;53.02;96616.56;2064646;28;20247;-58
2023/06/03 08:32:26;;;;;;;17.40;5.30;;;;;;;20.41;51.64;96613.72;2073484;28;20262;-58
2023/06/03 08:33:27;;;;;;;13.45;5.50;;;;;;;20.48;51.32;96614.03;2071696;28;20197;-58
2023/06/03 08:34:30;;;;;;;17.77;5.03;;;;;;;19.40;53.53;96614.03;2067897;28;20700;-58
2023/06/03 08:35:32;;;;;;;11.32;4.95;;;;;;;19.25;52.80;96618.75;2070302;28;20235;-58
2023/06/03 08:36:35;;;;;;;13.82;5.15;;;;;;;19.09;53.27;96619.13;2083166;28;20200;-57
2023/06/03 08:39:07;;;;;;;13.90;4.80;;;;;;;20.55;52.20;96604.59;2083965;28;20565;-57
2023/06/03 08:40:10;;;;;;;15.65;5.05;;;;;;;20.45;52.04;96614.31;2080908;28;20221;-56
2023/06/03 08:41:12;;;;;;;16.20;5.07;;;;;;;20.78;50.93;96613.22;2073369;28;20194;-57
2023/06/03 08:42:23;;;;;;;23.70;5.75;;;;;;;20.07;52.68;96616.56;2075247;28;20255;-58
2023/06/03 08:43:34;;;;;;;16.52;5.15;;;;;;;20.74;52.21;96613.66;2070205;28;20292;-56
2023/06/03 08:44:50;;;;;;;20.92;5.22;;;;;;;21.07;51.39;96619.66;2072496;28;20209;-56
2023/06/03 08:45:55;;;;;;;18.70;5.00;;;;;;;21.44;50.97;96616.38;2073534;28;20228;-59
2023/06/03 08:47:11;;;;;;;13.27;5.30;;;;;;;21.73;50.74;96619.09;2074584;28;20225;-56
2023/06/03 08:48:38;;;;;;;10.30;4.88;;;;;;;22.13;49.50;96623.44;2073389;28;20204;-57
2023/06/03 08:49:52;;;;;;;13.05;4.75;;;;;;;21.67;48.41;96623.16;2073629;28;20242;-56
2023/06/03 08:51:02;;;;;;;12.10;5.20;;;;;;;21.40;49.71;96614.97;2069824;28;20217;-57
2023/06/03 08:52:07;;;;;;;17.05;4.80;;;;;;;21.85;49.71;96619.78;2073366;28;20653;-57
2023/06/03 08:53:11;;;;;;;16.65;6.05;;;;;;;22.17;49.23;96610.72;2070150;28;20206;-57
2023/06/03 08:54:17;;;;;;;10.68;5.57;;;;;;;21.23;50.40;96609.34;2071267;28;20202;-56
2023/06/03 08:55:20;;;;;;;17.65;5.90;;;;;;;19.85;51.69;96618.34;2071120;28;20308;-57
2023/06/03 08:56:25;;;;;;;14.88;5.60;;;;;;;19.32;53.13;96613.78;2072927;28;20407;-58
2023/06/03 08:57:36;;;;;;;19.05;6.80;;;;;;;19.45;53.76;96613.63;2072505;28;20551;-56
2023/06/03 08:58:43;;;;;;;11.82;4.93;;;;;;;19.42;53.54;96617.38;2072854;28;20661;-57
2023/06/03 08:59:47;;;;;;;13.02;5.07;;;;;;;18.87;54.30;96611.19;2069970;28;20280;-56
2023/06/03 09:00:55;;;;;;;15.52;4.95;;;;;;;19.56;54.15;96621.53;2071639;28;20224;-57
2023/06/03 09:01:57;;;;;;;25.38;5.57;;;;;;;19.74;52.59;96615.72;2073036;28;20204;-56
2023/06/03 09:03:00;;;;;;;16.05;6.35;;;;;;;19.49;52.91;96623.03;2071444;28;20641;-57
2023/06/03 09:04:03;;;;;;;16.40;5.88;;;;;;;19.86;52.98;96612.09;2070378;28;20261;-56
2023/06/03 09:05:07;;;;;;;19.88;6.10;;;;;;;19.95;53.01;96620.22;2069659;28;20194;-57
2023/06/03 09:06:09;;;;;;;18.35;5.78;;;;;;;20.33;52.74;96616.19;2071886;28;20254;-58
2023/06/03 09:07:11;;;;;;;18.48;5.55;;;;;;;19.32;54.26;96623.56;2075307;28;20221;-56
2023/06/03 09:08:16;;;;;;;15.32;6.20;;;;;;;19.55;53.57;96621.69;2081202;28;20285;-56
2023/06/03 09:09:18;;;;;;;15.68;6.30;;;;;;;19.77;53.76;96625.22;2078960;28;20311;-58
2023/06/03 09:10:25;;;;;;;20.67;5.47;;;;;;;19.55;54.37;96619.03;2071928;28;20229;-57
2023/06/03 09:11:27;;;;;;;11.55;5.97;;;;;;;20.09;52.47;96621.72;2072686;28;20205;-58
2023/06/03 09:12:30;;;;;;;12.43;5.50;;;;;;;19.82;52.46;96626.56;2072575;28;20280;-57
2023/06/03 09:13:33;;;;;;;12.20;5.00;;;;;;;19.47;53.97;96618.81;2071260;28;20198;-57
2023/06/03 09:14:36;;;;;;;13.63;5.60;;;;;;;19.74;53.61;96627.16;2070014;28;20205;-58
2023/06/03 09:15:38;;;;;;;23.75;5.50;;;;;;;20.52;53.01;96615.47;2070111;28;20735;-57
2023/06/03 09:16:40;;;;;;;18.67;5.47;;;;;;;21.82;49.92;96626.22;2072859;28;20212;-58
2023/06/03 09:17:42;;;;;;;16.00;5.30;;;;;;;22.50;48.76;96625.38;2072634;28;20361;-59
2023/06/03 09:18:44;;;;;;;24.48;5.70;;;;;;;22.77;48.60;96622.91;2069999;28;20224;-58
2023/06/03 09:19:46;;;;;;;12.07;4.85;;;;;;;23.18;47.82;96628.78;2073499;28;20252;-58
2023/06/03 09:20:48;;;;;;;18.92;5.47;;;;;;;22.38;46.86;96629.16;2071130;28;20255;-58
2023/06/03 09:21:50;;;;;;;15.18;5.80;;;;;;;21.46;49.09;96620.56;2071339;28;20194;-57
2023/06/03 09:22:55;;;;;;;11.57;5.88;;;;;;;21.19;50.43;96622.06;2075220;28;20198;-58
2023/06/03 09:23:57;;;;;;;13.88;5.07;;;;;;;21.92;49.93;96628.06;2073777;28;20248;-58
2023/06/03 09:24:59;;;;;;;14.30;5.18;;;;;;;22.44;49.50;96625.94;2071313;28;20205;-57
2023/06/03 09:26:00;;;;;;;17.45;5.18;;;;;;;22.73;48.64;96625.03;2072163;28;20289;-58
2023/06/03 09:27:02;;;;;;;17.38;5.82;;;;;;;22.85;48.49;96624.84;2072194;28;20206;-58
2023/06/03 09:28:04;;;;;;;10.32;4.78;;;;;;;23.33;48.11;96625.66;2075084;28;20284;-58
2023/06/03 09:29:06;;;;;;;12.18;4.25;;;;;;;23.88;47.53;96619.38;2073734;28;20468;-57
2023/06/03 09:30:08;;;;;;;13.23;5.30;;;;;;;24.13;46.75;96625.78;2072991;28;20642;-59
2023/06/03 09:31:10;;;;;;;12.25;4.53;;;;;;;24.44;45.43;96623.53;2073890;28;20198;-58
2023/06/03 09:32:11;;;;;;;11.25;4.40;;;;;;;24.06;46.52;96611.38;2075555;28;20204;-58
2023/06/03 09:33:14;;;;;;;13.45;5.88;;;;;;;24.12;46.69;96621.44;2073059;28;20201;-59
2023/06/03 09:34:16;;;;;;;13.65;4.63;;;;;;;23.28;45.99;96624.25;2073220;28;20669;-58
2023/06/03 09:35:19;;;;;;;13.85;5.03;;;;;;;21.83;49.26;96627.09;2073826;28;20565;-58
2023/06/03 09:36:21;;;;;;;15.43;5.15;;;;;;;21.46;50.56;96619.75;2074881;28;20235;-58
2023/06/03 09:37:23;;;;;;;10.15;4.85;;;;;;;22.91;48.89;96618.94;2069911;28;20230;-59
2023/06/03 09:38:54;;;;;;;11.88;5.25;;;;;;;23.29;47.41;96623.25;2073427;28;20240;-58
2023/06/03 09:39:56;;;;;;;16.95;4.93;;;;;;;23.92;45.84;96620.75;2072190;28;20224;-58
2023/06/03 09:41:13;;;;;;;13.43;5.72;;;;;;;24.31;45.25;96620.41;2072859;28;20209;-59
2023/06/03 09:42:15;;;;;;;12.38;4.50;;;;;;;24.52;45.70;96617.41;2070040;28;20198;-58
2023/06/03 09:43:17;;;;;;;18.63;7.47;;;;;;;24.29;45.50;96612.56;2072551;28;20292;-58
2023/06/03 09:44:18;;;;;;;20.92;9.05;;;;;;;23.43;45.38;96626.41;2075381;28;20529;-57
2023/06/03 09:45:26;;;;;;;18.30;10.18;;;;;;;21.56;49.39;96614.47;2069053;28;20315;-57
2023/06/03 09:46:30;;;;;;;16.42;5.65;;;;;;;21.72;49.64;96619.25;2071116;28;20700;-58
2023/06/03 09:47:39;;;;;;;19.95;5.38;;;;;;;22.93;48.31;96615.16;2072576;28;20293;-58
2023/06/03 09:48:41;;;;;;;9.88;4.70;;;;;;;23.24;47.63;96624.72;2071754;28;20834;-60
2023/06/03 09:50:05;;;;;;;7.28;3.70;;;;;;;22.98;47.39;96612.88;2069027;28;20838;-58
2023/06/03 09:51:06;;;;;;;9.73;4.47;;;;;;;23.21;48.04;96607.19;2067124;28;20210;-58
2023/06/03 09:52:10;;;;;;;14.30;4.70;;;;;;;22.93;48.84;96612.47;2067365;28;20205;-60
2023/06/03 09:53:17;;;;;;;18.75;4.75;;;;;;;;;;2067889;28;20200;-59
2023/06/03 09:54:23;;;;;;;12.07;5.07;;;;;;;22.53;47.16;96607.44;2074775;28;20637;-59
2023/06/03 09:55:35;;;;;;;13.98;5.43;;;;;;;22.54;48.68;96603.78;2075064;28;20229;-60
2023/06/03 09:56:36;;;;;;;14.80;4.38;;;;;;;23.26;48.35;96610.25;2067211;28;20685;-59
2023/06/03 09:57:38;;;;;;;15.30;5.20;;;;;;;23.91;47.42;96617.28;2065960;28;20195;-59
2023/06/03 09:58:41;;;;;;;14.93;4.65;;;;;;;23.90;47.70;96612.88;2064446;28;20251;-59
2023/06/03 09:59:43;;;;;;;9.80;4.90;;;;;;;23.90;47.19;96612.06;2066833;28;20757;-59
2023/06/03 10:00:50;;;;;;;22.80;5.00;;;;;;;23.67;47.28;96615.19;2059516;28;20656;-59
2023/06/03 10:01:54;;;;;;;23.45;4.40;;;;;;;23.20;47.96;96621.50;2066582;28;20197;-59
2023/06/03 10:03:07;;;;;;;13.10;4.45;;;;;;;23.35;48.29;96615.66;2067403;28;20218;-59
2023/06/03 10:04:09;;;;;;;11.23;4.95;;;;;;;23.80;46.41;96612.13;2066662;28;20689;-59
2023/06/03 10:05:24;;;;;;;9.63;4.70;;;;;;;23.58;47.69;96606.25;2065789;28;20245;-59
2023/06/03 10:06:26;;;;;;;21.63;5.22;;;;;;;23.58;47.57;96618.72;2067892;28;20292;-59
2023/06/03 10:07:28;;;;;;;13.73;4.75;;;;;;;24.34;46.55;96616.59;2069423;28;20202;-59
2023/06/03 10:08:30;;;;;;;12.05;5.50;;;;;;;24.70;45.20;96609.38;2064436;28;20194;-59
2023/06/03 10:09:31;;;;;;;20.30;4.50;;;;;;;24.91;44.52;96606.31;2065383;28;20222;-59
2023/06/03 10:10:34;;;;;;;14.80;4.75;;;;;;;23.12;46.79;96610.69;2066588;28;20280;-58
2023/06/03 10:11:48;;;;;;;9.80;4.60;;;;;;;23.53;47.37;96613.00;2067070;28;20280;-59
2023/06/03 10:12:51;;;;;;;20.55;4.40;;;;;;;23.79;46.63;96608.66;2068854;28;20289;-59
2023/06/03 10:14:05;;;;;;;18.83;5.57;;;;;;;24.30;45.51;96608.06;2067802;28;20288;-59
2023/06/03 10:15:07;;;;;;;12.70;3.90;;;;;;;24.70;45.00;96603.22;2066834;28;20256;-59
2023/06/03 10:16:12;;;;;;;12.20;5.03;;;;;;;24.71;45.67;96612.88;2067491;28;20207;-59
2023/06/03 10:17:14;;;;;;;10.45;4.82;;;;;;;24.82;45.65;96599.25;2068153;28;20194;-59
2023/06/03 10:18:16;;;;;;;12.23;5.13;;;;;;;25.27;45.23;96611.47;2066777;28;20198;-59
2023/06/03 10:19:22;;;;;;;12.68;5.00;;;;;;;24.96;45.00;96605.00;2069521;28;20218;-59
2023/06/03 10:20:37;;;;;;;11.73;5.05;;;;;;;24.93;44.22;96606.16;2067452;28;20225;-59
2023/06/03 10:21:41;;;;;;;14.35;4.85;;;;;;;25.45;43.80;96604.38;2067740;28;20201;-60
2023/06/03 10:22:43;;;;;;;20.77;5.20;;;;;;;24.65;44.46;96606.34;2066972;28;20565;-59
2023/06/03 10:23:45;;;;;;;14.50;5.25;;;;;;;25.15;43.76;96612.75;2066293;28;20248;-59
2023/06/03 10:24:49;;;;;;;10.23;5.25;;;;;;;25.48;44.44;96609.38;2064284;28;20203;-59
2023/06/03 10:25:52;;;;;;;9.55;4.20;;;;;;;25.87;43.83;96612.28;2066675;28;20301;-59
2023/06/03 10:26:54;;;;;;;7.15;4.07;;;;;;;26.12;43.69;96608.81;2067884;28;20198;-59
2023/06/03 10:27:56;;;;;;;13.00;4.53;;;;;;;25.59;43.29;96604.56;2067777;28;20201;-59
2023/06/03 10:28:58;;;;;;;8.48;4.72;;;;;;;23.43;46.45;96611.25;2064190;28;20217;-60
2023/06/03 10:30:01;;;;;;;9.15;4.85;;;;;;;23.77;46.49;96615.94;2065126;28;20202;-59
2023/06/03 10:31:05;;;;;;;11.75;4.55;;;;;;;22.76;48.25;96614.06;2065707;28;20818;-59
2023/06/03 10:32:12;;;;;;;13.38;4.70;;;;;;;24.04;46.86;96602.72;2067628;28;20672;-59
2023/06/03 10:33:15;;;;;;;10.07;4.75;;;;;;;24.94;45.62;96602.50;2067767;28;20616;-59
2023/06/03 10:34:17;;;;;;;11.90;4.97;;;;;;;24.81;45.97;96610.94;2066473;28;20202;-60
2023/06/03 10:35:21;;;;;;;14.43;4.30;;;;;;;25.14;44.61;96603.09;2065830;28;20273;-59
2023/06/03 10:36:23;;;;;;;12.50;4.82;;;;;;;25.19;44.80;96594.56;2068183;28;20707;-59
2023/06/03 10:37:26;;;;;;;14.80;5.32;;;;;;;25.64;43.94;96597.91;2066526;28;20238;-59
2023/06/03 10:38:27;;;;;;;11.95;4.50;;;;;;;26.01;43.31;96607.31;2067056;28;20232;-59
2023/06/03 10:39:30;;;;;;;8.45;4.28;;;;;;;26.62;43.18;96606.94;2067965;28;20197;-59
2023/06/03 10:40:32;;;;;;;11.40;4.88;;;;;;;26.72;42.29;96607.59;2066428;28;20751;-59
2023/06/03 10:41:37;;;;;;;34.25;20.55;;;;;;;27.14;42.33;96602.97;2067085;28;20253;-59
2023/06/03 10:42:40;;;;;;;35.95;21.70;;;;;;;26.62;41.15;96607.78;2067593;28;20747;-58
2023/06/03 10:43:43;;;;;;;10.55;4.85;;;;;;;26.20;41.92;96598.13;2069899;28;20763;-59
2023/06/03 10:44:44;;;;;;;16.38;4.93;;;;;;;25.97;42.36;96597.94;2068225;28;20198;-59
2023/06/03 10:45:50;;;;;;;13.40;5.45;;;;;;;26.32;43.43;96595.94;2065536;28;20236;-59
2023/06/03 10:47:01;;;;;;;8.85;4.05;;;;;;;26.46;43.11;96599.78;2065404;28;20197;-59
2023/06/03 10:48:08;;;;;;;13.93;5.13;;;;;;;26.94;42.67;96610.56;2066930;28;20194;-59
2023/06/03 10:49:12;;;;;;;20.00;5.00;;;;;;;27.16;42.08;96607.16;2067734;28;20204;-59
2023/06/03 10:50:25;;;;;;;12.80;5.05;;;;;;;27.19;41.55;96600.59;2067016;28;20221;-59
2023/06/03 10:51:43;;;;;;;9.18;4.57;;;;;;;26.57;42.65;96602.09;2067811;28;20198;-59
2023/06/03 10:53:02;;;;;;;15.80;4.88;;;;;;;24.60;44.39;96600.59;2068425;28;20488;-59
2023/06/03 10:54:19;;;;;;;7.85;3.85;;;;;;;25.23;44.72;96599.44;2074842;28;20694;-60
2023/06/03 10:55:30;;;;;;;10.32;4.90;;;;;;;25.31;44.34;96597.78;2072805;28;20229;-59
2023/06/03 10:57:05;;;;;;;12.30;5.00;;;;;;;25.24;45.01;96597.59;2066370;28;20193;-57
2023/06/03 10:58:18;;;;;;;12.18;4.80;;;;;;;26.08;44.06;96597.66;2067628;28;20248;-56
2023/06/03 10:59:23;;;;;;;11.95;4.53;;;;;;;25.50;44.41;96602.06;2074477;28;20205;-57
2023/06/03 11:00:51;;;;;;;12.88;5.43;;;;;;;25.75;43.40;96600.25;2073983;28;20222;-57
2023/06/03 11:01:59;;;;;;;16.88;4.47;;;;;;;25.50;44.10;96604.72;2066233;28;20879;-59
2023/06/03 11:03:14;;;;;;;19.60;4.78;;;;;;;25.21;44.31;96597.91;2065829;28;20641;-57
2023/06/03 11:04:16;;;;;;;9.23;5.03;;;;;;;25.81;43.92;96596.09;2066171;28;20202;-58
2023/06/03 11:05:24;;;;;;;16.00;6.05;;;;;;;26.00;43.52;96606.44;2065428;28;20776;-58
2023/06/03 11:06:26;;;;;;;17.60;5.05;;;;;;;26.44;42.92;96601.81;2065604;28;20285;-57
2023/06/03 11:07:31;;;;;;;8.52;4.55;;;;;;;25.61;43.23;96601.75;2065612;28;20221;-58
2023/06/03 11:09:05;;;;;;;13.70;4.90;;;;;;;24.65;44.54;96597.50;2069254;28;20649;-57
2023/06/03 11:10:35;;;;;;;10.25;6.20;;;;;;;25.48;44.65;96594.19;2063461;28;20826;-57
2023/06/03 11:11:52;;;;;;;13.88;4.53;;;;;;;26.15;43.65;96598.63;2066778;28;20194;-58
2023/06/03 11:12:54;;;;;;;12.13;4.80;;;;;;;26.30;42.99;96595.28;2065208;28;20202;-59
2023/06/03 11:13:55;;;;;;;9.05;4.47;;;;;;;26.37;43.32;96580.22;2065134;28;20198;-58
2023/06/03 11:14:57;;;;;;;14.35;4.30;;;;;;;25.15;44.82;96591.38;2065197;28;20214;-58
2023/06/03 11:16:02;;;;;;;19.95;5.50;;;;;;;25.29;45.25;96602.47;2067376;28;20225;-58
2023/06/03 11:17:04;;;;;;;14.15;4.95;;;;;;;26.07;43.36;96606.66;2067015;28;20284;-59
2023/06/03 11:18:16;;;;;;;14.18;5.43;;;;;;;25.81;43.96;96601.44;2066916;28;20281;-59
2023/06/03 11:19:30;;;;;;;48.50;31.35;;;;;;;25.91;43.39;96602.09;2067918;28;21147;-58
2023/06/03 11:20:36;;;;;;;59.05;39.05;;;;;;;26.26;43.85;96593.94;2066440;28;20773;-59
2023/06/03 11:21:47;;;;;;;19.58;12.15;;;;;;;27.17;42.32;96590.06;2068304;28;20198;-58
2023/06/03 11:22:48;;;;;;;11.88;5.32;;;;;;;27.09;42.08;96595.44;2067599;28;20202;-58
2023/06/03 11:23:50;;;;;;;15.05;5.38;;;;;;;27.40;41.04;96602.72;2066069;28;20240;-58
2023/06/03 11:24:52;;;;;;;9.73;5.18;;;;;;;27.54;40.66;96595.75;2064783;28;20240;-58
2023/06/03 11:25:53;;;;;;;14.10;5.03;;;;;;;26.93;41.37;96600.88;2066413;28;20661;-58
2023/06/03 11:26:55;;;;;;;9.48;4.80;;;;;;;26.04;42.95;96594.44;2067121;28;20194;-58
2023/06/03 11:28:35;;;;;;;11.73;4.45;;;;;;;27.15;42.42;96591.25;2066810;28;20962;-58
2023/06/03 11:29:59;;;;;;;12.77;5.15;;;;;;;27.66;41.42;96590.84;2054570;28;20589;-58
2023/06/03 11:31:02;;;;;;;15.02;5.00;;;;;;;27.91;41.30;96585.28;2054137;28;20215;-58
2023/06/03 11:32:15;;;;;;;8.43;4.28;;;;;;;28.17;41.05;96584.94;2046322;29;20210;-58
2023/06/03 11:33:16;;;;;;;13.15;5.20;;;;;;;28.22;40.15;96589.78;2047437;28;20203;-58
2023/06/03 11:34:22;;;;;;;11.32;4.85;;;;;;;28.11;40.72;96599.94;2054477;28;20871;-58
2023/06/03 11:35:28;;;;;;;13.57;4.30;;;;;;;28.47;40.84;96587.69;2053758;28;20296;-59
2023/06/03 11:36:48;;;;;;;15.55;4.97;;;;;;;28.70;40.51;96587.66;2054314;28;20199;-58
2023/06/03 11:37:52;;;;;;;9.40;4.30;;;;;;;28.86;39.79;96591.16;2053835;28;20199;-58
2023/06/03 11:39:00;;;;;;;11.95;5.00;;;;;;;29.11;39.34;96584.47;2045967;29;20258;-58
2023/06/03 11:40:04;;;;;;;7.50;4.15;;;;;;;29.14;39.52;96584.13;2046475;28;20250;-58
2023/06/03 11:41:05;;;;;;;10.53;5.73;;;;;;;29.26;39.15;96586.31;2054327;28;20199;-59
2023/06/03 11:42:09;;;;;;;6.45;3.95;;;;;;;28.37;39.30;96577.22;2054402;28;20433;-58
2023/06/03 11:43:12;;;;;;;8.23;4.53;;;;;;;25.68;42.41;96583.19;2053833;28;20334;-58
2023/06/03 11:44:20;;;;;;;9.07;4.80;;;;;;;25.58;43.04;96586.03;2054261;28;20289;-58
2023/06/03 11:45:30;;;;;;;15.30;4.95;;;;;;;26.30;43.36;96576.56;2053449;28;20233;-58
2023/06/03 11:46:31;;;;;;;11.07;5.80;;;;;;;25.22;43.34;96572.88;2045049;29;20258;-58
2023/06/03 11:47:57;;;;;;;13.43;5.78;;;;;;;26.11;43.04;96578.56;2046034;28;20699;-58
2023/06/03 11:49:00;;;;;;;12.15;4.45;;;;;;;27.41;41.57;96580.25;2054304;28;20199;-58
2023/06/03 11:50:01;;;;;;;14.98;5.03;;;;;;;28.34;40.80;96577.56;2052921;28;20938;-58
2023/06/03 11:51:04;;;;;;;8.80;4.65;;;;;;;28.60;39.79;96573.63;2054413;28;20199;-60
2023/06/03 11:52:07;;;;;;;7.57;4.30;;;;;;;28.15;40.02;96570.84;2053889;28;20203;-58
2023/06/03 11:53:09;;;;;;;9.10;4.78;;;;;;;28.56;39.75;96575.03;2053730;28;20203;-58
2023/06/03 11:54:11;;;;;;;15.18;5.10;;;;;;;28.25;40.20;96574.16;2053498;28;20223;-58
2023/06/03 11:55:32;;;;;;;11.63;4.38;;;;;;;29.09;39.65;96575.78;2053138;28;20280;-58
2023/06/03 11:56:45;;;;;;;9.52;4.75;;;;;;;28.77;38.53;96579.69;2053929;28;20202;-58
2023/06/03 11:57:46;;;;;;;9.57;4.97;;;;;;;27.51;39.82;96582.72;2053797;28;20562;-58
2023/06/03 11:58:51;;;;;;;9.55;4.95;;;;;;;27.19;39.30;96581.84;2053394;28;20299;-58
2023/06/03 11:59:54;;;;;;;10.02;4.97;;;;;;;25.93;41.04;96578.72;2053221;28;20199;-58
2023/06/03 12:01:16;;;;;;;9.98;5.45;;;;;;;26.18;41.82;96584.06;2056404;28;20713;-58
2023/06/03 12:02:18;;;;;;;10.93;5.70;;;;;;;26.59;41.22;96572.47;2063419;28;20206;-58
2023/06/03 12:03:20;;;;;;;12.38;4.93;;;;;;;25.69;42.54;96571.50;2064303;28;20542;-59
2023/06/03 12:04:22;;;;;;;11.57;4.35;;;;;;;26.29;42.64;96572.22;2066968;28;20194;-58
2023/06/03 12:05:23;;;;;;;8.10;4.45;;;;;;;27.40;41.14;96569.69;2066547;28;20236;-58
2023/06/03 12:06:25;;;;;;;8.90;4.88;;;;;;;27.51;41.04;96566.63;2067083;28;20198;-58
2023/06/03 12:07:27;;;;;;;16.75;5.00;;;;;;;28.31;40.55;96568.03;2067837;28;20297;-58
2023/06/03 12:08:43;;;;;;;13.40;5.45;;;;;;;28.31;39.26;96565.34;2067228;28;20197;-58
2023/06/03 12:09:44;;;;;;;10.15;4.63;;;;;;;28.38;38.96;96567.28;2066319;28;20301;-58
2023/06/03 12:10:46;;;;;;;24.52;4.95;;;;;;;29.02;39.10;96564.09;2063057;28;20233;-58
2023/06/03 12:11:51;;;;;;;10.10;5.28;;;;;;;28.34;38.29;96565.00;2063828;28;20268;-59
2023/06/03 12:12:54;;;;;;;15.75;5.10;;;;;;;27.35;39.50;96560.31;2063486;28;20225;-58
2023/06/03 12:13:55;;;;;;;10.50;4.97;;;;;;;27.77;40.49;96566.28;2064800;28;20722;-58
2023/06/03 12:15:04;;;;;;;16.25;4.82;;;;;;;28.92;39.06;96563.56;2066074;28;20597;-58
2023/06/03 12:16:06;;;;;;;10.70;4.72;;;;;;;29.55;38.53;96558.56;2069882;28;20205;-58
2023/06/03 12:17:13;;;;;;;9.60;4.25;;;;;;;29.56;37.04;96562.91;2070712;28;20198;-59
2023/06/03 12:18:14;;;;;;;10.83;4.83;;;;;;;29.79;37.53;96570.81;2067968;28;20199;-59
2023/06/03 12:19:16;;;;;;;16.50;5.40;;;;;;;29.90;37.21;96565.97;2067360;28;20474;-58
2023/06/03 12:20:28;;;;;;;12.18;4.85;;;;;;;29.65;37.30;96567.16;2065639;28;20218;-59
2023/06/03 12:21:31;;;;;;;9.20;4.43;;;;;;;28.55;37.45;96563.44;2063324;28;20226;-59
2023/06/03 12:22:32;;;;;;;7.30;4.63;;;;;;;27.04;40.70;96550.41;2064142;28;20428;-58
2023/06/03 12:23:34;;;;;;;7.53;4.40;;;;;;;27.00;41.44;96567.03;2066511;28;20253;-58
2023/06/03 12:24:40;;;;;;;7.20;4.60;;;;;;;27.48;40.68;96558.94;2063241;28;20471;-58
2023/06/03 12:25:42;;;;;;;10.37;4.33;;;;;;;27.34;40.07;96563.19;2062335;28;20261;-59
2023/06/03 12:26:44;;;;;;;8.03;4.30;;;;;;;27.32;40.47;96567.88;2067536;28;20486;-58
2023/06/03 12:27:46;;;;;;;12.18;5.10;;;;;;;27.39;39.55;96568.88;2068152;28;20430;-58
2023/06/03 12:28:48;;;;;;;15.23;3.97;;;;;;;27.95;39.27;96557.91;2066079;28;20198;-58
2023/06/03 12:29:55;;;;;;;9.73;4.27;;;;;;;28.61;39.32;96561.88;2063521;28;20336;-59
2023/06/03 12:31:09;;;;;;;13.10;4.87;;;;;;;29.18;37.71;96560.38;2064591;28;20436;-58
2023/06/03 12:32:11;;;;;;;12.83;5.20;;;;;;;29.26;37.92;96556.75;2067411;28;20480;-58
2023/06/03 12:33:13;;;;;;;10.40;4.67;;;;;;;29.51;37.55;96564.50;2067567;28;20440;-59
2023/06/03 12:34:28;;;;;;;8.53;4.83;;;;;;;30.06;37.35;96568.38;2068344;28;20424;-59
2023/06/03 12:35:30;;;;;;;12.00;4.43;;;;;;;29.92;37.43;96567.44;2063940;28;20450;-58
2023/06/03 12:36:48;;;;;;;10.30;4.80;;;;;;;30.33;36.56;96565.09;2067328;28;20431;-58
2023/06/03 12:38:06;;;;;;;10.83;4.87;;;;;;;29.45;37.08;96558.03;2065012;28;20463;-58
2023/06/03 12:39:07;;;;;;;15.63;5.03;;;;;;;28.30;37.54;96555.66;2065445;28;20423;-58
2023/06/03 12:40:09;;;;;;;14.10;4.20;;;;;;;28.91;37.57;96552.00;2065744;28;20428;-58
2023/06/03 12:41:10;;;;;;;8.00;4.67;;;;;;;29.65;37.50;96542.94;2066880;28;21079;-58
2023/06/03 12:42:12;;;;;;;6.27;4.70;;;;;;;30.00;37.08;96557.56;2063324;28;20855;-58
2023/06/03 12:43:21;;;;;;;9.90;4.63;;;;;;;28.52;37.29;96548.53;2064041;28;20428;-58
2023/06/03 12:44:23;;;;;;;8.73;3.80;;;;;;;29.20;37.87;96550.25;2065897;28;20470;-58
2023/06/03 12:45:25;;;;;;;8.33;5.03;;;;;;;29.62;37.40;96553.25;2067859;28;20905;-58
2023/06/03 12:46:28;;;;;;;8.77;4.47;;;;;;;29.26;37.54;96554.06;2066400;28;20489;-59
2023/06/03 12:47:41;;;;;;;15.17;6.30;;;;;;;28.97;37.60;96545.84;2063151;28;20432;-59
2023/06/03 12:48:44;;;;;;;13.37;5.03;;;;;;;26.97;38.77;96519.13;2063912;28;20428;-58
2023/06/03 12:50:06;;;;;;;9.93;4.73;;;;;;;27.90;39.04;96543.41;2065412;28;20463;-58
2023/06/03 12:51:25;;;;;;;10.00;3.80;;;;;;;28.72;38.98;96547.16;2065562;28;21054;-60
2023/06/03 12:52:27;;;;;;;10.50;5.37;;;;;;;28.91;38.84;96545.78;2066642;28;20462;-58
2023/06/03 12:53:30;;;;;;;7.30;5.07;;;;;;;28.37;39.10;96542.31;2067311;28;20455;-58
2023/06/03 12:54:31;;;;;;;9.63;4.27;;;;;;;28.46;39.37;96543.88;2066452;28;20495;-58
2023/06/03 12:55:34;;;;;;;8.30;4.20;;;;;;;28.40;39.48;96550.00;2064735;28;21009;-58
2023/06/03 12:56:35;;;;;;;8.13;4.63;;;;;;;28.28;39.06;96546.94;2064304;28;20442;-58
2023/06/03 12:57:38;;;;;;;8.73;4.67;;;;;;;28.17;39.02;96545.50;2064666;28;20484;-58
2023/06/03 12:58:41;;;;;;;10.70;4.53;;;;;;;28.01;39.79;96540.25;2063512;28;20428;-59
2023/06/03 13:00:06;;;;;;;10.73;4.40;;;;;;;28.02;39.38;96544.59;2064464;28;20429;-58
2023/06/03 13:01:08;;;;;;;9.33;4.27;;;;;;;27.59;40.25;96546.97;2066946;28;20997;-58
2023/06/03 13:02:10;;;;;;;10.40;4.77;;;;;;;27.52;39.93;96542.31;2068156;28;20484;-58
2023/06/03 13:03:11;;;;;;;16.70;4.93;;;;;;;27.03;40.28;96545.22;2066384;28;20456;-58
2023/06/03 13:04:13;;;;;;;9.83;4.37;;;;;;;25.61;42.42;96547.44;2067834;28;20428;-59
2023/06/03 13:05:15;;;;;;;10.93;5.50;;;;;;;25.37;42.56;96541.03;2062325;28;20571;-59
2023/06/03 13:06:16;;;;;;;9.77;5.20;;;;;;;25.20;43.51;96540.97;2066458;28;20502;-59
2023/06/03 13:07:18;;;;;;;9.88;4.85;;;;;;;25.68;42.67;96545.78;2065593;28;20943;-58
2023/06/03 13:08:20;;;;;;;14.60;6.00;;;;;;;26.11;42.83;96549.16;2066195;28;20199;-58
2023/06/03 13:09:22;;;;;;;9.23;4.55;;;;;;;26.34;42.60;96543.91;2066682;28;20434;-58
2023/06/03 13:10:23;;;;;;;7.80;4.72;;;;;;;26.61;41.90;96543.69;2064682;28;20340;-59
2023/06/03 13:11:25;;;;;;;8.75;4.70;;;;;;;26.60;41.73;96542.88;2065361;28;20253;-58
2023/06/03 13:12:30;;;;;;;10.15;4.90;;;;;;;26.48;40.65;96541.56;2068536;28;20209;-58
2023/06/03 13:13:33;;;;;;;9.85;5.10;;;;;;;26.19;41.19;96541.09;2066427;28;20337;-59
2023/06/03 13:14:35;;;;;;;16.33;4.87;;;;;;;26.41;41.67;96544.09;2067233;28;20198;-58
2023/06/03 13:15:36;;;;;;;7.40;4.95;;;;;;;26.62;41.66;96540.00;2066618;28;20462;-58
2023/06/03 13:16:38;;;;;;;7.10;4.72;;;;;;;26.63;41.73;96536.34;2066067;28;20237;-58
2023/06/03 13:17:40;;;;;;;9.82;4.28;;;;;;;27.44;40.47;96526.28;2066031;28;20233;-59
2023/06/03 13:18:41;;;;;;;8.18;4.90;;;;;;;27.91;40.02;96539.69;2066520;28;20202;-59